sensor_id;sensor_type;location;lat;lon;timestamp;pressure;altitude;pressure_sealevel;temperature;humidity
45789;BME280;31492;54.856;26.318;2022-09-12T02:13:50;992.8;;;10.4;100
45789;BME280;31492;54.856;26.318;2022-09-12T02:19:02;993.2;;;10.5;100
45789;BME280;31492;54.856;26.318;2022-09-12T02:24:02;993.2;;;10.5;100
45789;BME280;31492;54.856;26.318;2022-09-12T02:29:07;993.2;;;10.5;100
45789;BME280;31492;54.856;26.318;2022-09-12T02:34:23;993.2;;;10.5;100
45789;BME280;31492;54.856;26.318;2022-09-12T02:38:59;993.2;;;10.6;100
45789;BME280;31492;54.856;26.318;2022-09-12T02:44:01;993.2;;;10.6;100
45789;BME280;31492;54.856;26.318;2022-09-12T02:49:05;993.2;;;10.6;100
45789;BME280;31492;54.856;26.318;2022-09-12T02:54:07;993.2;;;10.6;100
45789;BME280;31492;54.856;26.318;2022-09-12T02:59:04;993.2;;;10.6;100
45789;BME280;31492;54.856;26.318;2022-09-12T03:04:09;993.1;;;10.7;100
45789;BME280;31492;54.856;26.318;2022-09-12T03:09:35;993.1;;;10.7;100
45789;BME280;31492;54.856;26.318;2022-09-12T03:14:21;993.1;;;10.7;100
45789;BME280;31492;54.856;26.318;2022-09-12T03:19:08;993.1;;;10.7;100
45789;BME280;31492;54.856;26.318;2022-09-12T03:24:08;993.2;;;10.8;100
45789;BME280;31492;54.856;26.318;2022-09-12T03:29:05;993.2;;;10.7;100
45789;BME280;31492;54.856;26.318;2022-09-12T03:34:03;993.3;;;10.7;100
45789;BME280;31492;54.856;26.318;2022-09-12T03:39:01;993.3;;;10.8;100
45789;BME280;31492;54.856;26.318;2022-09-12T03:44:07;993.4;;;10.8;100
45789;BME280;31492;54.856;26.318;2022-09-12T03:49:01;993.4;;;10.7;100
45789;BME280;31492;54.856;26.318;2022-09-12T03:54:07;993.4;;;10.8;100
45789;BME280;31492;54.856;26.318;2022-09-12T03:59:05;993.4;;;10.7;100
45789;BME280;31492;54.856;26.318;2022-09-12T04:09:05;993.5;;;10.8;100
45789;BME280;31492;54.856;26.318;2022-09-12T04:14:03;993.5;;;10.7;100
45789;BME280;31492;54.856;26.318;2022-09-12T04:19:01;993.6;;;10.8;100
45789;BME280;31492;54.856;26.318;2022-09-12T04:24:03;993.6;;;10.8;100
45789;BME280;31492;54.856;26.318;2022-09-12T04:29:01;993.7;;;10.9;100
45789;BME280;31492;54.856;26.318;2022-09-12T04:34:03;993.7;;;10.9;100
45789;BME280;31492;54.856;26.318;2022-09-12T04:39:04;993.7;;;11;100
45789;BME280;31492;54.856;26.318;2022-09-12T04:44:09;993.8;;;11;100
45789;BME280;31492;54.856;26.318;2022-09-12T04:48:29;993.8;;;11;100
45789;BME280;31492;54.856;26.318;2022-09-12T04:54:04;993.9;;;10.9;100
45789;BME280;31492;54.856;26.318;2022-09-12T04:59:05;993.9;;;10.8;100
45789;BME280;31492;54.856;26.318;2022-09-12T05:04:08;994;;;10.9;100
45789;BME280;31492;54.856;26.318;2022-09-12T05:09:04;994;;;11;100
45789;BME280;31492;54.856;26.318;2022-09-12T05:14:03;994;;;11.1;100
45789;BME280;31492;54.856;26.318;2022-09-12T05:19:03;994;;;11.2;100
45789;BME280;31492;54.856;26.318;2022-09-12T05:24:03;994;;;11.3;100
45789;BME280;31492;54.856;26.318;2022-09-12T05:29:03;994;;;11.2;100
45789;BME280;31492;54.856;26.318;2022-09-12T05:34:05;994;;;11.2;100
45789;BME280;31492;54.856;26.318;2022-09-12T05:39:03;994;;;11.2;100
45789;BME280;31492;54.856;26.318;2022-09-12T05:44:04;994;;;11.2;100
45789;BME280;31492;54.856;26.318;2022-09-12T05:49:07;994;;;11.3;100
45789;BME280;31492;54.856;26.318;2022-09-12T05:54:04;994.1;;;11.3;100
45789;BME280;31492;54.856;26.318;2022-09-12T05:59:07;994.1;;;11.4;100
45789;BME280;31492;54.856;26.318;2022-09-12T06:04:00;994.1;;;11.5;100
45789;BME280;31492;54.856;26.318;2022-09-12T06:09:00;994.1;;;11.7;100
45789;BME280;31492;54.856;26.318;2022-09-12T06:14:03;994.1;;;11.8;100
45789;BME280;31492;54.856;26.318;2022-09-12T06:19:00;994.1;;;11.9;100
45789;BME280;31492;54.856;26.318;2022-09-12T06:24:03;994.1;;;12.1;100
45789;BME280;31492;54.856;26.318;2022-09-12T06:29:01;994.1;;;12.3;100
45789;BME280;31492;54.856;26.318;2022-09-12T06:33:53;994.1;;;12.4;100
45789;BME280;31492;54.856;26.318;2022-09-12T06:39:04;994.1;;;12.6;100
45789;BME280;31492;54.856;26.318;2022-09-12T06:44:01;994;;;12.7;100
45789;BME280;31492;54.856;26.318;2022-09-12T06:48:52;994;;;12.8;100
45789;BME280;31492;54.856;26.318;2022-09-12T06:54:01;994.1;;;12.9;100
45789;BME280;31492;54.856;26.318;2022-09-12T06:58:59;994.1;;;13;100
45789;BME280;31492;54.856;26.318;2022-09-12T07:04:03;994.2;;;13;100
45789;BME280;31492;54.856;26.318;2022-09-12T07:09:02;994.2;;;13.2;100
45789;BME280;31492;54.856;26.318;2022-09-12T07:14:04;994.3;;;13.9;100
45789;BME280;31492;54.856;26.318;2022-09-12T07:19:02;994.3;;;14.4;100
45789;BME280;31492;54.856;26.318;2022-09-12T07:23:49;994.3;;;14.4;100
45789;BME280;31492;54.856;26.318;2022-09-12T07:29:03;994.3;;;14.4;100
45789;BME280;31492;54.856;26.318;2022-09-12T07:34:04;994.4;;;14.4;100
45789;BME280;31492;54.856;26.318;2022-09-12T07:39:01;994.5;;;14.2;100
45789;BME280;31492;54.856;26.318;2022-09-12T07:43:39;994.5;;;14;100
45789;BME280;31492;54.856;26.318;2022-09-12T07:49:01;994.5;;;14.1;100
45789;BME280;31492;54.856;26.318;2022-09-12T07:53:59;994.4;;;14.7;100
45789;BME280;31492;54.856;26.318;2022-09-12T07:59:06;994.4;;;15.6;100
45789;BME280;31492;54.856;26.318;2022-09-12T08:04:03;994.4;;;15.4;100
45789;BME280;31492;54.856;26.318;2022-09-12T08:09:02;994.5;;;15.1;100
45789;BME280;31492;54.856;26.318;2022-09-12T08:14:01;994.5;;;14.8;100
45789;BME280;31492;54.856;26.318;2022-09-12T08:18:59;994.6;;;14.6;100
45789;BME280;31492;54.856;26.318;2022-09-12T08:24:02;994.6;;;14.7;100
45789;BME280;31492;54.856;26.318;2022-09-12T08:29:01;994.6;;;14.7;100
45789;BME280;31492;54.856;26.318;2022-09-12T08:33:59;994.6;;;14.7;100
45789;BME280;31492;54.856;26.318;2022-09-12T08:39:03;994.5;;;14.7;100
45789;BME280;31492;54.856;26.318;2022-09-12T08:45:08;994.6;;;14.3;100
45789;BME280;31492;54.856;26.318;2022-09-12T08:49:03;994.6;;;14;100
45789;BME280;31492;54.856;26.318;2022-09-12T08:54:09;994.7;;;13.9;100
45789;BME280;31492;54.856;26.318;2022-09-12T08:58:57;994.7;;;13.8;100
45789;BME280;31492;54.856;26.318;2022-09-12T09:04:07;994.6;;;13.9;100
45789;BME280;31492;54.856;26.318;2022-09-12T09:09:04;994.6;;;14;100
45789;BME280;31492;54.856;26.318;2022-09-12T09:14:10;994.7;;;14.1;100
45789;BME280;31492;54.856;26.318;2022-09-12T09:19:05;994.7;;;14.1;100
45789;BME280;31492;54.856;26.318;2022-09-12T09:24:01;994.7;;;14.1;100
45789;BME280;31492;54.856;26.318;2022-09-12T09:29:02;994.7;;;13.9;100
45789;BME280;31492;54.856;26.318;2022-09-12T09:33:59;994.7;;;13.6;100
45789;BME280;31492;54.856;26.318;2022-09-12T09:40:00;994.8;;;13.4;100
45789;BME280;31492;54.856;26.318;2022-09-12T09:44:03;994.8;;;13.3;100
45789;BME280;31492;54.856;26.318;2022-09-12T09:48:59;994.8;;;13.1;100
45789;BME280;31492;54.856;26.318;2022-09-12T09:54:02;994.9;;;13.2;100
45789;BME280;31492;54.856;26.318;2022-09-12T09:58:55;994.9;;;13.5;100
45789;BME280;31492;54.856;26.318;2022-09-12T10:04:01;994.9;;;13.6;100
45789;BME280;31492;54.856;26.318;2022-09-12T10:09:04;994.9;;;13.9;100
45789;BME280;31492;54.856;26.318;2022-09-12T10:13:51;994.9;;;14.2;100
45789;BME280;31492;54.856;26.318;2022-09-12T10:19:00;994.9;;;14.5;100
45789;BME280;31492;54.856;26.318;2022-09-12T10:24:04;995;;;14.1;100
45789;BME280;31492;54.856;26.318;2022-09-12T10:29:05;995.1;;;13.8;100
45789;BME280;31492;54.856;26.318;2022-09-12T10:33:59;995.1;;;13.5;100
45789;BME280;31492;54.856;26.318;2022-09-12T10:38:58;995.1;;;13.3;100
45789;BME280;31492;54.856;26.318;2022-09-12T10:44:04;995.1;;;13.3;100
45789;BME280;31492;54.856;26.318;2022-09-12T10:49:11;995.1;;;13.4;100
45789;BME280;31492;54.856;26.318;2022-09-12T10:54:02;995.1;;;13.5;100
45789;BME280;31492;54.856;26.318;2022-09-12T10:59:04;995.2;;;13.3;100
45789;BME280;31492;54.856;26.318;2022-09-12T11:04:04;995.2;;;13.2;100
45789;BME280;31492;54.856;26.318;2022-09-12T11:09:07;995.3;;;13.2;100
45789;BME280;31492;54.856;26.318;2022-09-12T11:14:03;995.3;;;13.4;100
45789;BME280;31492;54.856;26.318;2022-09-12T11:19:09;995.3;;;13.5;100
45789;BME280;31492;54.856;26.318;2022-09-12T11:29:13;995.4;;;13.6;100
45789;BME280;31492;54.856;26.318;2022-09-12T11:34:01;995.4;;;13.4;100
45789;BME280;31492;54.856;26.318;2022-09-12T11:39:20;995.5;;;13.2;100
45789;BME280;31492;54.856;26.318;2022-09-12T11:44:36;995.5;;;13.2;100
45789;BME280;31492;54.856;26.318;2022-09-12T11:49:16;995.5;;;13.2;100
45789;BME280;31492;54.856;26.318;2022-09-12T11:54:19;995.6;;;13.2;100
45789;BME280;31492;54.856;26.318;2022-09-12T11:59:03;995.6;;;13.3;100
45789;BME280;31492;54.856;26.318;2022-09-12T12:03:57;995.6;;;13.2;100
45789;BME280;31492;54.856;26.318;2022-09-12T12:08:59;995.7;;;13;100
45789;BME280;31492;54.856;26.318;2022-09-12T12:13:59;995.8;;;12.9;100
45789;BME280;31492;54.856;26.318;2022-09-12T12:19:09;995.8;;;12.9;100
45789;BME280;31492;54.856;26.318;2022-09-12T12:24:10;995.8;;;12.9;100
45789;BME280;31492;54.856;26.318;2022-09-12T12:28:57;995.8;;;12.7;100
45789;BME280;31492;54.856;26.318;2022-09-12T12:34:06;995.9;;;12.6;100
45789;BME280;31492;54.856;26.318;2022-09-12T12:40:17;995.9;;;12.6;100
45789;BME280;31492;54.856;26.318;2022-09-12T12:45:44;995.9;;;12.7;100
45789;BME280;31492;54.856;26.318;2022-09-12T12:49:03;995.9;;;12.7;100
45789;BME280;31492;54.856;26.318;2022-09-12T12:54:08;995.9;;;12.8;100
45789;BME280;31492;54.856;26.318;2022-09-12T12:59:21;996;;;12.8;100
45789;BME280;31492;54.856;26.318;2022-09-12T13:04:02;996;;;12.8;100
45789;BME280;31492;54.856;26.318;2022-09-12T13:09:06;996;;;12.8;100
45789;BME280;31492;54.856;26.318;2022-09-12T13:14:06;996;;;12.7;100
45789;BME280;31492;54.856;26.318;2022-09-12T13:19:04;996;;;12.7;100
45789;BME280;31492;54.856;26.318;2022-09-12T13:24:04;996;;;12.5;100
45789;BME280;31492;54.856;26.318;2022-09-12T13:29:20;996.1;;;12.4;100
45789;BME280;31492;54.856;26.318;2022-09-12T13:34:04;996.1;;;12.3;100
45789;BME280;31492;54.856;26.318;2022-09-12T13:40:12;996.1;;;12.2;100
45789;BME280;31492;54.856;26.318;2022-09-12T13:44:01;996.2;;;12.1;100
45789;BME280;31492;54.856;26.318;2022-09-12T13:49:16;996.3;;;12;100
45789;BME280;31492;54.856;26.318;2022-09-12T13:54:02;996.3;;;12;100
45789;BME280;31492;54.856;26.318;2022-09-12T13:59:09;996.3;;;12.1;100
45789;BME280;31492;54.856;26.318;2022-09-12T14:03:59;996.3;;;12.2;100
45789;BME280;31492;54.856;26.318;2022-09-12T14:09:01;996.3;;;12.3;100
45789;BME280;31492;54.856;26.318;2022-09-12T14:14:02;996.4;;;12.2;100
45789;BME280;31492;54.856;26.318;2022-09-12T14:19:03;996.4;;;12.2;100
45789;BME280;31492;54.856;26.318;2022-09-12T14:24:00;996.4;;;12.2;100
45789;BME280;31492;54.856;26.318;2022-09-12T14:29:04;996.4;;;12.3;100
45789;BME280;31492;54.856;26.318;2022-09-12T14:34:15;996.4;;;12.3;100
45789;BME280;31492;54.856;26.318;2022-09-12T14:39:02;996.4;;;12.4;100
45789;BME280;31492;54.856;26.318;2022-09-12T14:44:05;996.4;;;12.5;100
45789;BME280;31492;54.856;26.318;2022-09-12T14:49:07;996.4;;;12.3;100
45789;BME280;31492;54.856;26.318;2022-09-12T14:54:03;996.5;;;12.1;100
45789;BME280;31492;54.856;26.318;2022-09-12T14:59:19;996.5;;;12;100
45789;BME280;31492;54.856;26.318;2022-09-12T15:04:01;996.5;;;12;100
45789;BME280;31492;54.856;26.318;2022-09-12T15:09:05;996.5;;;12.1;100
45789;BME280;31492;54.856;26.318;2022-09-12T15:14:11;996.4;;;12.2;100
45789;BME280;31492;54.856;26.318;2022-09-12T15:19:02;996.4;;;12.3;100
45789;BME280;31492;54.856;26.318;2022-09-12T15:24:03;996.5;;;12.4;100
45789;BME280;31492;54.856;26.318;2022-09-12T15:29:05;996.5;;;12.5;100
45789;BME280;31492;54.856;26.318;2022-09-12T15:34:03;996.6;;;12.5;100
45789;BME280;31492;54.856;26.318;2022-09-12T15:39:03;996.6;;;12.5;100
45789;BME280;31492;54.856;26.318;2022-09-12T15:44:02;996.7;;;12.4;100
45789;BME280;31492;54.856;26.318;2022-09-12T15:48:59;996.7;;;12.3;100
45789;BME280;31492;54.856;26.318;2022-09-12T15:54:02;996.7;;;12.2;100
45789;BME280;31492;54.856;26.318;2022-09-12T15:59:03;996.8;;;12.1;100
45789;BME280;31492;54.856;26.318;2022-09-12T16:04:22;996.8;;;12.1;100
45789;BME280;31492;54.856;26.318;2022-09-12T16:09:01;996.8;;;12.1;100
45789;BME280;31492;54.856;26.318;2022-09-12T16:13:59;996.8;;;12.1;100
45789;BME280;31492;54.856;26.318;2022-09-12T16:19:03;996.9;;;12;100
45789;BME280;31492;54.856;26.318;2022-09-12T16:24:02;996.9;;;12;100
45789;BME280;31492;54.856;26.318;2022-09-12T16:29:03;997;;;11.7;100
45789;BME280;31492;54.856;26.318;2022-09-12T16:34:01;997;;;11.6;100
45789;BME280;31492;54.856;26.318;2022-09-12T16:39:03;997;;;11.6;100
45789;BME280;31492;54.856;26.318;2022-09-12T16:44:05;997;;;11.6;100
45789;BME280;31492;54.856;26.318;2022-09-12T16:49:03;997;;;11.7;100
45789;BME280;31492;54.856;26.318;2022-09-12T16:54:05;997;;;11.7;100
45789;BME280;31492;54.856;26.318;2022-09-12T16:59:03;997;;;11.7;100
45789;BME280;31492;54.856;26.318;2022-09-12T17:04:01;997.1;;;11.7;100
45789;BME280;31492;54.856;26.318;2022-09-12T17:09:02;997.1;;;11.7;100
45789;BME280;31492;54.856;26.318;2022-09-12T17:14:00;997.1;;;11.6;100
45789;BME280;31492;54.856;26.318;2022-09-12T17:19:04;997.1;;;11.5;100
45789;BME280;31492;54.856;26.318;2022-09-12T17:23:59;997.1;;;11.5;100
45789;BME280;31492;54.856;26.318;2022-09-12T17:28:59;997.1;;;11.5;100
45789;BME280;31492;54.856;26.318;2022-09-12T17:34:02;997.1;;;11.5;100
45789;BME280;31492;54.856;26.318;2022-09-12T17:39:03;997.1;;;11.5;100
45789;BME280;31492;54.856;26.318;2022-09-12T17:43:53;997.1;;;11.4;100
45789;BME280;31492;54.856;26.318;2022-09-12T17:49:03;997.1;;;11.4;100
45789;BME280;31492;54.856;26.318;2022-09-12T17:54:05;997.2;;;11.3;100
45789;BME280;31492;54.856;26.318;2022-09-12T17:59:04;997.1;;;11.2;100
45789;BME280;31492;54.856;26.318;2022-09-12T18:04:03;997.1;;;11.2;100
45789;BME280;31492;54.856;26.318;2022-09-12T18:09:04;997.2;;;11.3;100
45789;BME280;31492;54.856;26.318;2022-09-12T18:14:03;997.2;;;11.3;100
45789;BME280;31492;54.856;26.318;2022-09-12T18:19:03;997.2;;;11.3;100
45789;BME280;31492;54.856;26.318;2022-09-12T18:24:02;997.3;;;11.3;100
45789;BME280;31492;54.856;26.318;2022-09-12T18:29:04;997.3;;;11.3;100
45789;BME280;31492;54.856;26.318;2022-09-12T18:34:03;997.4;;;11.2;100
45789;BME280;31492;54.856;26.318;2022-09-12T18:38:59;997.3;;;11.2;100
45789;BME280;31492;54.856;26.318;2022-09-12T18:43:52;997.3;;;11.2;100
45789;BME280;31492;54.856;26.318;2022-09-12T18:49:00;997.2;;;11.1;100
45789;BME280;31492;54.856;26.318;2022-09-12T18:54:08;997.2;;;11.2;100
45789;BME280;31492;54.856;26.318;2022-09-12T18:59:04;997.2;;;11.2;100
45789;BME280;31492;54.856;26.318;2022-09-12T19:04:02;997.3;;;11.3;100
45789;BME280;31492;54.856;26.318;2022-09-12T19:09:04;997.3;;;11.2;100
45789;BME280;31492;54.856;26.318;2022-09-12T19:14:04;997.3;;;11.2;100
45789;BME280;31492;54.856;26.318;2022-09-12T19:19:04;997.3;;;11.3;100
45789;BME280;31492;54.856;26.318;2022-09-12T19:24:05;997.2;;;11.3;100
45789;BME280;31492;54.856;26.318;2022-09-12T19:29:02;997.2;;;11.3;100
45789;BME280;31492;54.856;26.318;2022-09-12T19:34:02;997.2;;;11.2;100
45789;BME280;31492;54.856;26.318;2022-09-12T19:38:59;997.2;;;11.2;100
45789;BME280;31492;54.856;26.318;2022-09-12T19:44:02;997.2;;;11.1;100
45789;BME280;31492;54.856;26.318;2022-09-12T19:49:03;997.2;;;11.2;100
45789;BME280;31492;54.856;26.318;2022-09-12T19:53:59;997.2;;;11.2;100
45789;BME280;31492;54.856;26.318;2022-09-12T19:59:00;997.2;;;11.1;100
45789;BME280;31492;54.856;26.318;2022-09-12T20:04:00;997.2;;;11.1;100
45789;BME280;31492;54.856;26.318;2022-09-12T20:09:02;997.1;;;11;100
45789;BME280;31492;54.856;26.318;2022-09-12T20:14:02;997.1;;;10.9;100
45789;BME280;31492;54.856;26.318;2022-09-12T20:19:00;997.1;;;10.9;100
45789;BME280;31492;54.856;26.318;2022-09-12T20:24:05;997.1;;;10.9;100
45789;BME280;31492;54.856;26.318;2022-09-12T20:29:02;997.2;;;10.9;100
45789;BME280;31492;54.856;26.318;2022-09-12T20:34:02;997.2;;;11;100
45789;BME280;31492;54.856;26.318;2022-09-12T20:38:58;997.2;;;10.9;100
45789;BME280;31492;54.856;26.318;2022-09-12T20:44:02;997.2;;;10.8;100
45789;BME280;31492;54.856;26.318;2022-09-12T20:49:00;997.2;;;10.9;100
45789;BME280;31492;54.856;26.318;2022-09-12T20:53:58;997.2;;;11;100
45789;BME280;31492;54.856;26.318;2022-09-12T20:59:02;997.2;;;11.1;100
45789;BME280;31492;54.856;26.318;2022-09-12T21:04:02;997.2;;;11.1;100
45789;BME280;31492;54.856;26.318;2022-09-12T21:08:58;997.2;;;11.1;100
45789;BME280;31492;54.856;26.318;2022-09-12T21:13:58;997.1;;;11;100
45789;BME280;31492;54.856;26.318;2022-09-12T21:18:58;997.1;;;11;100
45789;BME280;31492;54.856;26.318;2022-09-12T21:24:02;997.1;;;11;100
45789;BME280;31492;54.856;26.318;2022-09-12T21:29:00;997.1;;;11;100
45789;BME280;31492;54.856;26.318;2022-09-12T21:34:04;997.2;;;11;100
45789;BME280;31492;54.856;26.318;2022-09-12T21:38:58;997.1;;;10.9;100
45789;BME280;31492;54.856;26.318;2022-09-12T21:44:00;997.1;;;10.8;100
45789;BME280;31492;54.856;26.318;2022-09-12T21:49:04;997.1;;;10.9;100
45789;BME280;31492;54.856;26.318;2022-09-12T21:54:00;997.1;;;11;100
45789;BME280;31492;54.856;26.318;2022-09-12T21:59:00;997.2;;;11;100
45789;BME280;31492;54.856;26.318;2022-09-12T22:04:02;997.2;;;10.9;100
45789;BME280;31492;54.856;26.318;2022-09-12T22:08:58;997.2;;;10.9;100
45789;BME280;31492;54.856;26.318;2022-09-12T22:14:02;997.1;;;10.7;100
45789;BME280;31492;54.856;26.318;2022-09-12T22:19:02;997.2;;;10.7;100
45789;BME280;31492;54.856;26.318;2022-09-12T22:24:00;997.1;;;10.7;100
45789;BME280;31492;54.856;26.318;2022-09-12T22:29:02;997.2;;;10.8;100
45789;BME280;31492;54.856;26.318;2022-09-12T22:34:00;997.2;;;10.9;100
45789;BME280;31492;54.856;26.318;2022-09-12T22:39:02;997.2;;;10.9;100
